ADDS TAF Board (Experimental) INFO Settings

IDs: Format: Expanded Condensed

KPIT - Pittsburgh Intl, PA, US

Issued at 1747 UTC 28 Feb 2015
Updated at: 2046 UTC 28 Feb 2015
Time1951Z 28/21Z 28/22Z 28/23Z 01/00Z 01/01Z 01/02Z 01/03Z 01/04Z 01/05Z 01/06Z 01/07Z 01/08Z 01/09Z
Type OBS PRVL PRVL PRVL PRVL PRVL PRVL PRVL PRVL PRVL PRVL PRVL PRVL PRVL
VIS 10 >6 >6 >6 >6 >6 >6 >6 >6 >6 >6 2 2 2
CIG 250 120 120 120 120 120 120 120 60 60 60 15 15 15
Cover BKN BKN BKN BKN BKN BKN BKN BKN OVC OVC OVC OVC OVC OVC
FltCat VFR VFR VFR VFR VFR VFR VFR VFR VFR VFR VFR IFR IFR IFR
WX -- -- -- -- -- -- -- -- -- -- -- -SN -SN -SN
WDir 60 100 100 100 100 100 100 100 90 90 90 120 120 120
WSpd 5 5 5 5 5 5 5 5 5 5 5 6 6 6
WGst -- -- -- -- -- -- -- -- -- -- -- -- -- --
R10/28
XWnd 3 -1 -1 -1 -1 -1 -1 -1 0 0 0 -3 -3 -3
HWnd 4 5 5 5 5 5 5 5 5 5 5 5 5 5
R14/32
XWnd 5 3 3 3 3 3 3 3 4 4 4 2 2 2
HWnd 1 4 4 4 4 4 4 4 3 3 3 6 6 6

NOTE: TEMPO conditions in [brackets]. Keep in mind TEMPO conditions might be better (lower impact) than prevailing conditions.

Raw TAF
KPIT 281747Z 2818/0124 10005KT P6SM BKN120
  FM010400 09005KT P6SM OVC060
  FM010700 12006KT 2SM -SN OVC015
  FM011300 18006KT 1SM -SN OVC008
  FM011900 20005KT 3SM -RASN OVC012


Raw METAR
KPIT 281951Z 06005KT 10SM SCT120 BKN250 M04/M18 A3064 RMK AO2 SLP410 T10391183
KPIT 281851Z 09005KT 10SM SCT250 M05/M18 A3067 RMK AO2 SLP418 T10501178
KPIT 281751Z 08004KT 10SM FEW250 M06/M17 A3071 RMK AO2 SLP431 T10611167 11061 21183 58014

METAR Board
Radar Display
Forecast Discussion

TAF Board Legend

Potential Impact
Threat None Slight Moderate High
Visibility (sm) ≥5.1 5.1>X≥3 3>X≥1 <1
Ceiling (100 ft) ≥30.1 30.1>X≥10 10>X≥5 <5
Wind Speed (kt) <10 10≤X<20 20≤X<30 ≥30
Wind Gust (kt) <15 15≤X<25 25≤X<35 ≥35
Weather No Wx Reported VCTS,-TS,-FZRA,SN TS,FZRA +TS,+FZRA,+SN